Airfield :
LOGIN :

Register | Disclaimer

   EN    FR    IT 

 










Legend :    VFR   Marginal VFR   IFR   Intensive IFR   Very Intensive IFR
Visi :
Ceiling :
>= 8 km
>= 3000ft
5 to 8 km
1000 to 3000 ft
1500m to 5 km
500 to 1000 ft
800 to 1500m
200 to 500 ft
< 800m
< 200 ft
Symbols :   Thunderstorms  Fog  Heavy snow  Heavy precipitations  Wind > 20 kt
SIGMETs :     Misc.  Thunderstorms  Icing  Turbulence  Mountain Waves  Volcanic Ashes







- Airport Elevation : 1300 ft
- IATA code : LIG
- Download approach charts


LFBL - Limoges

CURRENT METAR :
  • 211130Z AUTO 07007KT 350V110 9999 FEW010 24/13 Q1023 NOSIG

EXPIRED METARs :
  • 211100Z AUTO 07006KT 010V110 CAVOK 23/12 Q1023 NOSIG
  • 211030Z AUTO 02006KT 340V060 CAVOK 23/12 Q1023 NOSIG
  • 211000Z AUTO 06007KT 030V100 CAVOK 22/11 Q1023 NOSIG
  • 210930Z AUTO 06006KT 020V100 CAVOK 21/11 Q1023 NOSIG
  • 210900Z AUTO 06007KT 020V090 CAVOK 21/11 Q1023 NOSIG

TAF TAF LFBL
Valid from the 21 at 12:00 until the 22 at 12:00 UTC


211100Z 2112/2212 06007KT CAVOK
ATIS : +33 5 55 48 40 37
No reported NOTAMs for that airfield.



MET'MAP, your aeronautical weather chart ! - Copyright ORBIFLY December 2007 - Disclaimer

ORBIFLY MET'MAP TEAM :

Programming & Development : Alexandra Zaïnal
Concept & Development : Baudouin d'Aumeries
Co-Development & Prog : Marc-Olivier Méhu
Technical & hardware support : Manuel Goepfert

Contact : metmap@orbifly.com




SOURCES & CREDITS :

   NOAA